sensor_id;sensor_type;location;lat;lon;timestamp;pressure;altitude;pressure_sealevel;temperature;humidity
10310;BME280;5200;43.236;27.986;2023-02-18T00:01:30;100474.88;;;8.02;56.01
10310;BME280;5200;43.236;27.986;2023-02-18T00:03:57;100475.81;;;8.01;56.23
10310;BME280;5200;43.236;27.986;2023-02-18T00:06:27;100463.50;;;7.90;55.98
10310;BME280;5200;43.236;27.986;2023-02-18T00:08:56;100471.19;;;8.04;55.71
10310;BME280;5200;43.236;27.986;2023-02-18T00:11:27;100464.91;;;8.07;55.47
10310;BME280;5200;43.236;27.986;2023-02-18T00:13:56;100468.44;;;8.06;55.94
10310;BME280;5200;43.236;27.986;2023-02-18T00:16:24;100459.16;;;8.02;55.95
10310;BME280;5200;43.236;27.986;2023-02-18T00:18:54;100462.59;;;8.02;55.74
10310;BME280;5200;43.236;27.986;2023-02-18T00:21:21;100443.97;;;7.94;55.35
10310;BME280;5200;43.236;27.986;2023-02-18T00:23:48;100441.47;;;7.93;55.99
10310;BME280;5200;43.236;27.986;2023-02-18T00:26:22;100445.16;;;7.90;55.96
10310;BME280;5200;43.236;27.986;2023-02-18T00:28:49;100455.66;;;8.01;55.39
10310;BME280;5200;43.236;27.986;2023-02-18T00:31:19;100430.75;;;7.96;55.76
10310;BME280;5200;43.236;27.986;2023-02-18T00:33:46;100434.94;;;7.98;54.84
10310;BME280;5200;43.236;27.986;2023-02-18T00:36:15;100433.53;;;8.05;55.25
10310;BME280;5200;43.236;27.986;2023-02-18T00:38:43;100415.19;;;8.05;55.41
10310;BME280;5200;43.236;27.986;2023-02-18T00:41:11;100403.94;;;7.92;55.63
10310;BME280;5200;43.236;27.986;2023-02-18T00:43:39;100389.06;;;7.93;55.54
10310;BME280;5200;43.236;27.986;2023-02-18T00:46:06;100427.34;;;8.07;55.02
10310;BME280;5200;43.236;27.986;2023-02-18T00:48:33;100406.84;;;8.00;55.10
10310;BME280;5200;43.236;27.986;2023-02-18T00:51:01;100410.19;;;8.02;55.47
10310;BME280;5200;43.236;27.986;2023-02-18T00:53:28;100412.81;;;8.02;56.24
10310;BME280;5200;43.236;27.986;2023-02-18T00:55:55;100401.22;;;7.94;55.91
10310;BME280;5200;43.236;27.986;2023-02-18T00:58:22;100392.44;;;7.82;55.54
10310;BME280;5200;43.236;27.986;2023-02-18T01:00:50;100409.41;;;7.89;55.64
10310;BME280;5200;43.236;27.986;2023-02-18T01:03:17;100401.03;;;7.84;55.69
10310;BME280;5200;43.236;27.986;2023-02-18T01:05:45;100388.88;;;7.83;56.23
10310;BME280;5200;43.236;27.986;2023-02-18T01:08:12;100386.97;;;7.85;55.10
10310;BME280;5200;43.236;27.986;2023-02-18T01:10:41;100380.31;;;7.81;55.75
10310;BME280;5200;43.236;27.986;2023-02-18T01:13:09;100374.53;;;7.76;55.67
10310;BME280;5200;43.236;27.986;2023-02-18T01:15:37;100371.25;;;7.85;55.97
10310;BME280;5200;43.236;27.986;2023-02-18T01:18:06;100374.84;;;7.84;55.76
10310;BME280;5200;43.236;27.986;2023-02-18T01:20:33;100378.28;;;7.84;55.89
10310;BME280;5200;43.236;27.986;2023-02-18T01:23:00;100374.84;;;7.84;55.56
10310;BME280;5200;43.236;27.986;2023-02-18T01:25:27;100375.44;;;7.88;54.96
10310;BME280;5200;43.236;27.986;2023-02-18T01:27:53;100369.16;;;7.90;55.67
10310;BME280;5200;43.236;27.986;2023-02-18T01:30:21;100367.16;;;7.94;55.02
10310;BME280;5200;43.236;27.986;2023-02-18T01:32:48;100362.53;;;7.97;55.04
10310;BME280;5200;43.236;27.986;2023-02-18T01:35:18;100362.53;;;7.97;55.64
10310;BME280;5200;43.236;27.986;2023-02-18T01:37:46;100364.91;;;8.00;54.94
10310;BME280;5200;43.236;27.986;2023-02-18T01:40:15;100363.03;;;8.02;55.27
10310;BME280;5200;43.236;27.986;2023-02-18T01:42:42;100350.47;;;7.95;55.82
10310;BME280;5200;43.236;27.986;2023-02-18T01:45:45;100366.13;;;8.08;54.43
10310;BME280;5200;43.236;27.986;2023-02-18T01:48:17;100335.38;;;7.98;55.11
10310;BME280;5200;43.236;27.986;2023-02-18T01:50:48;100367.34;;;8.15;54.26
10310;BME280;5200;43.236;27.986;2023-02-18T01:53:22;100380.38;;;8.16;53.98
10310;BME280;5200;43.236;27.986;2023-02-18T01:55:53;100355.69;;;7.95;54.49
10310;BME280;5200;43.236;27.986;2023-02-18T01:58:21;100385.09;;;8.11;54.51
10310;BME280;5200;43.236;27.986;2023-02-18T02:00:48;100362.78;;;8.05;54.64
10310;BME280;5200;43.236;27.986;2023-02-18T02:03:15;100345.03;;;7.98;55.00
10310;BME280;5200;43.236;27.986;2023-02-18T02:05:42;100346.00;;;8.08;54.04
10310;BME280;5200;43.236;27.986;2023-02-18T02:08:10;100331.44;;;8.04;54.75
10310;BME280;5200;43.236;27.986;2023-02-18T02:10:45;100333.00;;;8.07;54.35
10310;BME280;5200;43.236;27.986;2023-02-18T02:13:23;100331.25;;;8.07;54.43
10310;BME280;5200;43.236;27.986;2023-02-18T02:15:59;100341.16;;;8.15;54.14
10310;BME280;5200;43.236;27.986;2023-02-18T02:18:41;100325.19;;;8.18;54.05
10310;BME280;5200;43.236;27.986;2023-02-18T02:27:31;100335.91;;;8.15;54.00
10310;BME280;5200;43.236;27.986;2023-02-18T02:30:31;100349.06;;;8.26;53.42
10310;BME280;5200;43.236;27.986;2023-02-18T02:36:20;100328.22;;;8.36;53.13
10310;BME280;5200;43.236;27.986;2023-02-18T02:38:54;100302.81;;;8.25;53.74
10310;BME280;5200;43.236;27.986;2023-02-18T02:41:31;100332.41;;;8.38;53.63
10310;BME280;5200;43.236;27.986;2023-02-18T02:44:11;100330.59;;;8.39;53.21
10310;BME280;5200;43.236;27.986;2023-02-18T02:46:43;100343.66;;;8.40;52.81
10310;BME280;5200;43.236;27.986;2023-02-18T02:49:20;100349.63;;;8.42;52.67
10310;BME280;5200;43.236;27.986;2023-02-18T02:51:56;100314.56;;;8.43;53.34
10310;BME280;5200;43.236;27.986;2023-02-18T02:54:25;100320.41;;;8.47;53.24
10310;BME280;5200;43.236;27.986;2023-02-18T02:57:04;100328.28;;;8.58;53.51
10310;BME280;5200;43.236;27.986;2023-02-18T02:59:31;100318.88;;;8.56;52.73
10310;BME280;5200;43.236;27.986;2023-02-18T03:02:13;100338.69;;;8.71;52.41
10310;BME280;5200;43.236;27.986;2023-02-18T03:04:57;100332.38;;;8.74;51.86
10310;BME280;5200;43.236;27.986;2023-02-18T03:07:47;100335.97;;;8.73;51.91
10310;BME280;5200;43.236;27.986;2023-02-18T03:10:34;100327.94;;;8.74;52.26
10310;BME280;5200;43.236;27.986;2023-02-18T03:13:08;100324.63;;;8.72;52.14
10310;BME280;5200;43.236;27.986;2023-02-18T03:15:45;100331.75;;;8.70;52.15
10310;BME280;5200;43.236;27.986;2023-02-18T03:18:17;100324.84;;;8.69;52.41
10310;BME280;5200;43.236;27.986;2023-02-18T03:20:51;100312.44;;;8.60;52.17
10310;BME280;5200;43.236;27.986;2023-02-18T03:23:26;100322.00;;;8.61;52.30
10310;BME280;5200;43.236;27.986;2023-02-18T03:25:55;100310.06;;;8.57;52.40
10310;BME280;5200;43.236;27.986;2023-02-18T03:28:25;100303.38;;;8.53;52.80
10310;BME280;5200;43.236;27.986;2023-02-18T03:30:58;100303.47;;;8.51;52.92
10310;BME280;5200;43.236;27.986;2023-02-18T03:33:29;100305.28;;;8.51;53.08
10310;BME280;5200;43.236;27.986;2023-02-18T03:35:59;100302.16;;;8.45;53.62
10310;BME280;5200;43.236;27.986;2023-02-18T03:38:33;100298.38;;;8.50;52.41
10310;BME280;5200;43.236;27.986;2023-02-18T03:41:02;100306.00;;;8.53;52.33
10310;BME280;5200;43.236;27.986;2023-02-18T03:43:30;100305.06;;;8.54;52.60
10310;BME280;5200;43.236;27.986;2023-02-18T03:45:57;100289.31;;;8.54;52.53
10310;BME280;5200;43.236;27.986;2023-02-18T03:48:24;100276.56;;;8.49;52.45
10310;BME280;5200;43.236;27.986;2023-02-18T03:50:51;100272.59;;;8.43;52.34
10310;BME280;5200;43.236;27.986;2023-02-18T03:53:18;100282.03;;;8.46;52.67
10310;BME280;5200;43.236;27.986;2023-02-18T03:55:46;100267.81;;;8.37;52.39
10310;BME280;5200;43.236;27.986;2023-02-18T03:58:13;100300.84;;;8.51;52.53
10310;BME280;5200;43.236;27.986;2023-02-18T04:00:40;100304.06;;;8.43;53.15
10310;BME280;5200;43.236;27.986;2023-02-18T04:03:07;100311.94;;;8.43;53.12
10310;BME280;5200;43.236;27.986;2023-02-18T04:05:33;100304.06;;;8.43;52.93
10310;BME280;5200;43.236;27.986;2023-02-18T04:08:00;100280.91;;;8.26;52.44
10310;BME280;5200;43.236;27.986;2023-02-18T04:10:27;100280.91;;;8.26;53.58
10310;BME280;5200;43.236;27.986;2023-02-18T04:12:55;100276.09;;;8.20;53.52
10310;BME280;5200;43.236;27.986;2023-02-18T04:15:22;100297.13;;;8.31;53.59
10310;BME280;5200;43.236;27.986;2023-02-18T04:17:49;100281.34;;;8.20;53.52
10310;BME280;5200;43.236;27.986;2023-02-18T04:20:16;100289.09;;;8.21;53.20
10310;BME280;5200;43.236;27.986;2023-02-18T04:22:43;100305.69;;;8.33;53.77
10310;BME280;5200;43.236;27.986;2023-02-18T04:25:10;100276.09;;;8.20;53.64
10310;BME280;5200;43.236;27.986;2023-02-18T04:27:37;100297.84;;;8.33;53.87
10310;BME280;5200;43.236;27.986;2023-02-18T04:30:06;100299.50;;;8.34;53.48
10310;BME280;5200;43.236;27.986;2023-02-18T04:32:33;100293.41;;;8.34;53.70
10310;BME280;5200;43.236;27.986;2023-02-18T04:35:00;100301.91;;;8.37;52.77
10310;BME280;5200;43.236;27.986;2023-02-18T04:37:27;100288.78;;;8.37;53.69
10310;BME280;5200;43.236;27.986;2023-02-18T04:39:54;100260.13;;;8.23;52.57
10310;BME280;5200;43.236;27.986;2023-02-18T04:42:21;100271.63;;;8.33;52.65
10310;BME280;5200;43.236;27.986;2023-02-18T04:44:48;100282.84;;;8.46;52.27
10310;BME280;5200;43.236;27.986;2023-02-18T04:47:16;100281.44;;;8.42;52.65
10310;BME280;5200;43.236;27.986;2023-02-18T04:49:43;100264.00;;;8.30;52.61
10310;BME280;5200;43.236;27.986;2023-02-18T04:52:10;100266.63;;;8.30;52.83
10310;BME280;5200;43.236;27.986;2023-02-18T04:54:37;100249.91;;;8.20;53.30
10310;BME280;5200;43.236;27.986;2023-02-18T04:57:03;100266.72;;;8.29;53.11
10310;BME280;5200;43.236;27.986;2023-02-18T04:59:30;100263.16;;;8.18;53.92
10310;BME280;5200;43.236;27.986;2023-02-18T05:01:57;100256.31;;;8.16;54.34
10310;BME280;5200;43.236;27.986;2023-02-18T05:04:25;100257.72;;;8.09;53.82
10310;BME280;5200;43.236;27.986;2023-02-18T05:06:52;100246.75;;;8.03;54.26
10310;BME280;5200;43.236;27.986;2023-02-18T05:09:19;100260.34;;;8.09;54.28
10310;BME280;5200;43.236;27.986;2023-02-18T05:11:46;100249.88;;;8.09;54.31
10310;BME280;5200;43.236;27.986;2023-02-18T05:14:13;100268.00;;;8.12;53.27
10310;BME280;5200;43.236;27.986;2023-02-18T05:16:40;100262.28;;;8.18;53.29
10310;BME280;5200;43.236;27.986;2023-02-18T05:19:07;100252.78;;;8.28;52.40
10310;BME280;5200;43.236;27.986;2023-02-18T05:21:35;100266.13;;;8.36;51.79
10310;BME280;5200;43.236;27.986;2023-02-18T05:24:02;100267.13;;;8.46;51.02
10310;BME280;5200;43.236;27.986;2023-02-18T05:26:29;100263.09;;;8.54;51.65
10310;BME280;5200;43.236;27.986;2023-02-18T05:28:56;100254.50;;;8.63;50.87
10310;BME280;5200;43.236;27.986;2023-02-18T05:31:23;100260.00;;;8.71;50.83
10310;BME280;5200;43.236;27.986;2023-02-18T05:33:49;100260.94;;;8.70;50.13
10310;BME280;5200;43.236;27.986;2023-02-18T05:36:16;100270.59;;;8.81;50.41
10310;BME280;5200;43.236;27.986;2023-02-18T05:38:44;100255.69;;;8.81;50.40
10310;BME280;5200;43.236;27.986;2023-02-18T05:41:11;100262.25;;;8.87;49.48
10310;BME280;5200;43.236;27.986;2023-02-18T05:43:38;100227.09;;;8.67;49.59
10310;BME280;5200;43.236;27.986;2023-02-18T05:46:18;100251.41;;;8.80;49.15
10310;BME280;5200;43.236;27.986;2023-02-18T05:48:45;100280.03;;;8.95;49.34
10310;BME280;5200;43.236;27.986;2023-02-18T05:51:12;100277.16;;;8.98;49.42
10310;BME280;5200;43.236;27.986;2023-02-18T05:53:39;100275.50;;;8.97;48.89
10310;BME280;5200;43.236;27.986;2023-02-18T05:56:07;100266.66;;;8.98;49.04
10310;BME280;5200;43.236;27.986;2023-02-18T05:58:34;100260.69;;;8.96;49.62
10310;BME280;5200;43.236;27.986;2023-02-18T06:01:01;100273.34;;;9.02;49.50
10310;BME280;5200;43.236;27.986;2023-02-18T06:03:28;100266.19;;;9.04;49.50
10310;BME280;5200;43.236;27.986;2023-02-18T06:05:55;100267.97;;;9.03;48.66
10310;BME280;5200;43.236;27.986;2023-02-18T06:08:22;100235.31;;;8.85;49.18
10310;BME280;5200;43.236;27.986;2023-02-18T06:10:49;100253.66;;;8.96;48.91
10310;BME280;5200;43.236;27.986;2023-02-18T06:13:17;100261.50;;;9.07;49.28
10310;BME280;5200;43.236;27.986;2023-02-18T06:15:44;100242.81;;;9.01;48.80
10310;BME280;5200;43.236;27.986;2023-02-18T06:18:11;100262.81;;;9.13;49.21
10310;BME280;5200;43.236;27.986;2023-02-18T06:20:38;100266.88;;;9.17;48.53
10310;BME280;5200;43.236;27.986;2023-02-18T06:23:05;100251.34;;;9.14;48.74
10310;BME280;5200;43.236;27.986;2023-02-18T06:25:32;100236.59;;;9.02;48.75
10310;BME280;5200;43.236;27.986;2023-02-18T06:27:59;100225.34;;;9.11;48.30
10310;BME280;5200;43.236;27.986;2023-02-18T06:30:27;100231.78;;;9.18;48.64
10310;BME280;5200;43.236;27.986;2023-02-18T06:32:54;100256.31;;;9.40;48.46
10310;BME280;5200;43.236;27.986;2023-02-18T06:35:21;100240.81;;;9.37;48.33
10310;BME280;5200;43.236;27.986;2023-02-18T06:37:47;100221.13;;;9.31;48.57
10310;BME280;5200;43.236;27.986;2023-02-18T06:40:15;100234.00;;;9.45;48.15
10310;BME280;5200;43.236;27.986;2023-02-18T06:42:43;100233.47;;;9.51;48.20
10310;BME280;5200;43.236;27.986;2023-02-18T06:45:09;100229.25;;;9.60;48.28
10310;BME280;5200;43.236;27.986;2023-02-18T06:47:38;100227.47;;;9.61;48.01
10310;BME280;5200;43.236;27.986;2023-02-18T06:50:06;100218.94;;;9.68;46.97
10310;BME280;5200;43.236;27.986;2023-02-18T06:52:33;100235.38;;;9.82;47.08
10310;BME280;5200;43.236;27.986;2023-02-18T06:54:59;100237.50;;;9.88;46.67
10310;BME280;5200;43.236;27.986;2023-02-18T06:57:26;100249.16;;;9.95;46.69
10310;BME280;5200;43.236;27.986;2023-02-18T06:59:53;100227.94;;;9.87;46.61
10310;BME280;5200;43.236;27.986;2023-02-18T07:02:20;100236.47;;;10.00;46.06
10310;BME280;5200;43.236;27.986;2023-02-18T07:04:48;100239.16;;;10.10;45.98
10310;BME280;5200;43.236;27.986;2023-02-18T07:07:15;100237.25;;;10.12;46.28
10310;BME280;5200;43.236;27.986;2023-02-18T07:09:44;100255.59;;;10.23;46.10
10310;BME280;5200;43.236;27.986;2023-02-18T07:12:11;100247.91;;;10.31;45.62
10310;BME280;5200;43.236;27.986;2023-02-18T07:14:38;100244.06;;;10.35;45.46
10310;BME280;5200;43.236;27.986;2023-02-18T07:17:05;100244.38;;;10.42;45.06
10310;BME280;5200;43.236;27.986;2023-02-18T07:19:32;100235.69;;;10.51;44.81
10310;BME280;5200;43.236;27.986;2023-02-18T07:22:00;100235.03;;;10.59;44.75
10310;BME280;5200;43.236;27.986;2023-02-18T07:24:28;100237.25;;;10.64;44.64
10310;BME280;5200;43.236;27.986;2023-02-18T07:26:55;100228.81;;;10.70;44.59
10310;BME280;5200;43.236;27.986;2023-02-18T07:29:22;100235.50;;;10.74;43.73
10310;BME280;5200;43.236;27.986;2023-02-18T07:31:48;100223.75;;;10.78;43.93
10310;BME280;5200;43.236;27.986;2023-02-18T07:34:15;100209.88;;;10.76;43.80
10310;BME280;5200;43.236;27.986;2023-02-18T07:36:42;100220.59;;;10.84;43.77
10310;BME280;5200;43.236;27.986;2023-02-18T07:39:10;100233.88;;;10.92;44.03
10310;BME280;5200;43.236;27.986;2023-02-18T07:41:37;100229.88;;;10.98;43.88
10310;BME280;5200;43.236;27.986;2023-02-18T07:44:04;100229.94;;;11.08;43.65
10310;BME280;5200;43.236;27.986;2023-02-18T07:46:31;100221.47;;;11.14;43.86
10310;BME280;5200;43.236;27.986;2023-02-18T07:48:58;100213.03;;;11.20;43.50
10310;BME280;5200;43.236;27.986;2023-02-18T07:51:25;100215.81;;;11.28;43.31
10310;BME280;5200;43.236;27.986;2023-02-18T07:53:51;100185.59;;;11.23;43.49
10310;BME280;5200;43.236;27.986;2023-02-18T07:56:19;100214.69;;;11.40;42.78
10310;BME280;5200;43.236;27.986;2023-02-18T07:58:46;100227.63;;;11.53;42.77
10310;BME280;5200;43.236;27.986;2023-02-18T08:01:13;100220.81;;;11.60;42.75
10310;BME280;5200;43.236;27.986;2023-02-18T08:03:40;100219.41;;;11.66;42.79
10310;BME280;5200;43.236;27.986;2023-02-18T08:06:08;100208.31;;;11.72;43.75
10310;BME280;5200;43.236;27.986;2023-02-18T08:08:42;100207.50;;;11.81;43.07
10310;BME280;5200;43.236;27.986;2023-02-18T08:11:09;100202.22;;;11.91;42.68
10310;BME280;5200;43.236;27.986;2023-02-18T08:13:37;100196.50;;;12.05;42.27
10310;BME280;5200;43.236;27.986;2023-02-18T08:16:04;100188.16;;;12.10;41.90
10310;BME280;5200;43.236;27.986;2023-02-18T08:18:31;100188.56;;;12.15;41.50
10310;BME280;5200;43.236;27.986;2023-02-18T08:20:58;100186.06;;;12.23;41.07
10310;BME280;5200;43.236;27.986;2023-02-18T08:23:25;100188.78;;;12.32;40.67
10310;BME280;5200;43.236;27.986;2023-02-18T08:25:53;100183.78;;;12.38;40.96
10310;BME280;5200;43.236;27.986;2023-02-18T08:28:21;100179.47;;;12.37;40.08
10310;BME280;5200;43.236;27.986;2023-02-18T08:30:50;100173.09;;;12.40;40.11
10310;BME280;5200;43.236;27.986;2023-02-18T08:33:18;100177.38;;;12.41;39.99
10310;BME280;5200;43.236;27.986;2023-02-18T08:35:46;100170.28;;;12.41;40.14
10310;BME280;5200;43.236;27.986;2023-02-18T08:38:13;100151.97;;;12.40;40.30
10310;BME280;5200;43.236;27.986;2023-02-18T08:40:41;100171.78;;;12.54;40.43
10310;BME280;5200;43.236;27.986;2023-02-18T08:43:08;100174.25;;;12.55;40.54
10310;BME280;5200;43.236;27.986;2023-02-18T08:45:36;100171.03;;;12.61;40.46
10310;BME280;5200;43.236;27.986;2023-02-18T08:48:05;100171.81;;;12.72;40.27
10310;BME280;5200;43.236;27.986;2023-02-18T08:50:32;100172.16;;;12.86;40.39
10310;BME280;5200;43.236;27.986;2023-02-18T08:53:00;100172.09;;;12.96;40.22
10310;BME280;5200;43.236;27.986;2023-02-18T08:55:28;100168.25;;;13.08;39.65
10310;BME280;5200;43.236;27.986;2023-02-18T08:57:54;100167.72;;;13.23;39.36
10310;BME280;5200;43.236;27.986;2023-02-18T09:00:22;100179.91;;;13.34;39.39
10310;BME280;5200;43.236;27.986;2023-02-18T09:02:49;100172.59;;;13.45;38.86
10310;BME280;5200;43.236;27.986;2023-02-18T09:05:17;100176.34;;;13.61;39.04
10310;BME280;5200;43.236;27.986;2023-02-18T09:07:44;100176.47;;;13.77;39.08
10310;BME280;5200;43.236;27.986;2023-02-18T09:10:10;100162.00;;;13.89;38.28
10310;BME280;5200;43.236;27.986;2023-02-18T09:12:37;100171.72;;;14.07;38.79
10310;BME280;5200;43.236;27.986;2023-02-18T09:15:04;100153.63;;;14.28;38.54
10310;BME280;5200;43.236;27.986;2023-02-18T09:17:31;100152.38;;;14.41;38.20
10310;BME280;5200;43.236;27.986;2023-02-18T09:19:58;100155.06;;;14.49;37.47
10310;BME280;5200;43.236;27.986;2023-02-18T09:22:26;100135.53;;;14.50;37.47
10310;BME280;5200;43.236;27.986;2023-02-18T09:24:53;100122.28;;;14.50;37.81
10310;BME280;5200;43.236;27.986;2023-02-18T09:27:20;100132.44;;;14.54;37.72
10310;BME280;5200;43.236;27.986;2023-02-18T09:29:47;100132.44;;;14.63;37.92
10310;BME280;5200;43.236;27.986;2023-02-18T09:32:15;100111.25;;;14.54;37.94
10310;BME280;5200;43.236;27.986;2023-02-18T09:34:42;100120.06;;;14.63;38.09
10310;BME280;5200;43.236;27.986;2023-02-18T09:37:09;100096.72;;;14.58;38.08
10310;BME280;5200;43.236;27.986;2023-02-18T09:39:38;100116.06;;;14.59;37.91
10310;BME280;5200;43.236;27.986;2023-02-18T09:42:07;100104.09;;;14.47;37.51
10310;BME280;5200;43.236;27.986;2023-02-18T09:44:39;100075.59;;;14.32;37.71
10310;BME280;5200;43.236;27.986;2023-02-18T09:47:12;100092.28;;;14.33;37.80
10310;BME280;5200;43.236;27.986;2023-02-18T09:49:44;100082.84;;;14.30;37.70
10310;BME280;5200;43.236;27.986;2023-02-18T09:52:21;100076.22;;;14.26;37.75
10310;BME280;5200;43.236;27.986;2023-02-18T09:54:51;100076.22;;;14.26;37.83
10310;BME280;5200;43.236;27.986;2023-02-18T09:57:23;100079.34;;;14.22;38.18
10310;BME280;5200;43.236;27.986;2023-02-18T09:59:56;100082.13;;;14.20;37.77
10310;BME280;5200;43.236;27.986;2023-02-18T10:02:24;100088.94;;;14.23;37.83
10310;BME280;5200;43.236;27.986;2023-02-18T10:04:51;100080.50;;;14.19;37.86
10310;BME280;5200;43.236;27.986;2023-02-18T10:07:24;100082.47;;;14.17;38.22
10310;BME280;5200;43.236;27.986;2023-02-18T10:09:54;100086.72;;;14.10;38.28
10310;BME280;5200;43.236;27.986;2023-02-18T10:12:25;100086.41;;;14.13;38.22
10310;BME280;5200;43.236;27.986;2023-02-18T10:14:54;100099.69;;;14.21;38.30
10310;BME280;5200;43.236;27.986;2023-02-18T10:17:23;100062.09;;;14.09;38.42
10310;BME280;5200;43.236;27.986;2023-02-18T10:19:52;100097.72;;;14.23;38.20
10310;BME280;5200;43.236;27.986;2023-02-18T10:22:21;100067.41;;;14.17;38.11
10310;BME280;5200;43.236;27.986;2023-02-18T10:24:50;100064.94;;;14.16;38.56
10310;BME280;5200;43.236;27.986;2023-02-18T10:27:24;100041.16;;;14.24;38.62
10310;BME280;5200;43.236;27.986;2023-02-18T10:29:53;100065.31;;;14.29;38.32
10310;BME280;5200;43.236;27.986;2023-02-18T10:32:22;100058.41;;;14.45;38.29
10310;BME280;5200;43.236;27.986;2023-02-18T10:34:52;100085.59;;;14.55;38.38
10310;BME280;5200;43.236;27.986;2023-02-18T10:37:34;100084.63;;;14.64;38.50
10310;BME280;5200;43.236;27.986;2023-02-18T10:40:10;100084.16;;;14.69;38.54
10310;BME280;5200;43.236;27.986;2023-02-18T10:42:49;100068.75;;;14.64;38.65
10310;BME280;5200;43.236;27.986;2023-02-18T10:45:25;100087.66;;;14.86;38.41
10310;BME280;5200;43.236;27.986;2023-02-18T10:48:05;100058.50;;;14.86;38.73
10310;BME280;5200;43.236;27.986;2023-02-18T10:50:38;100058.69;;;14.84;38.56
10310;BME280;5200;43.236;27.986;2023-02-18T10:53:10;100035.34;;;14.88;38.65
10310;BME280;5200;43.236;27.986;2023-02-18T10:55:40;100047.44;;;15.07;39.03
10310;BME280;5200;43.236;27.986;2023-02-18T10:58:27;100053.91;;;15.04;39.12
10310;BME280;5200;43.236;27.986;2023-02-18T11:00:55;100053.25;;;15.10;39.52
10310;BME280;5200;43.236;27.986;2023-02-18T11:03:25;100023.09;;;14.95;39.40
10310;BME280;5200;43.236;27.986;2023-02-18T11:05:54;100032.53;;;15.06;39.78
10310;BME280;5200;43.236;27.986;2023-02-18T11:08:24;100053.22;;;15.18;40.07
10310;BME280;5200;43.236;27.986;2023-02-18T11:10:52;100056.22;;;15.32;40.04
10310;BME280;5200;43.236;27.986;2023-02-18T11:13:24;100059.19;;;15.37;40.36
10310;BME280;5200;43.236;27.986;2023-02-18T11:15:58;100058.34;;;15.53;40.25
10310;BME280;5200;43.236;27.986;2023-02-18T11:18:43;100039.91;;;15.68;40.49
10310;BME280;5200;43.236;27.986;2023-02-18T11:21:23;100055.97;;;15.82;40.44
10310;BME280;5200;43.236;27.986;2023-02-18T11:23:52;100029.72;;;15.96;40.84
10310;BME280;5200;43.236;27.986;2023-02-18T11:26:25;100046.78;;;16.01;40.99
10310;BME280;5200;43.236;27.986;2023-02-18T11:28:57;100034.16;;;16.12;41.14
10310;BME280;5200;43.236;27.986;2023-02-18T11:31:37;100023.47;;;16.20;41.21
10310;BME280;5200;43.236;27.986;2023-02-18T11:34:05;100036.72;;;16.28;41.17
10310;BME280;5200;43.236;27.986;2023-02-18T11:36:39;100039.50;;;16.35;41.30
10310;BME280;5200;43.236;27.986;2023-02-18T11:39:16;100024.88;;;16.39;41.16
10310;BME280;5200;43.236;27.986;2023-02-18T11:41:47;100022.53;;;16.44;41.33
10310;BME280;5200;43.236;27.986;2023-02-18T11:44:21;100022.84;;;16.49;41.16
10310;BME280;5200;43.236;27.986;2023-02-18T11:47:00;100022.59;;;16.59;41.46
10310;BME280;5200;43.236;27.986;2023-02-18T11:49:27;100007.59;;;16.66;40.90
10310;BME280;5200;43.236;27.986;2023-02-18T11:52:03;100011.75;;;16.68;40.91
10310;BME280;5200;43.236;27.986;2023-02-18T11:54:31;99987.94;;;16.75;40.91
10310;BME280;5200;43.236;27.986;2023-02-18T11:57:02;100005.72;;;16.98;40.49
10310;BME280;5200;43.236;27.986;2023-02-18T11:59:33;99997.25;;;17.17;40.34
10310;BME280;5200;43.236;27.986;2023-02-18T12:02:23;100002.03;;;17.22;39.97
10310;BME280;5200;43.236;27.986;2023-02-18T12:04:55;99983.06;;;17.40;39.98
10310;BME280;5200;43.236;27.986;2023-02-18T12:07:28;99992.97;;;17.46;39.49
10310;BME280;5200;43.236;27.986;2023-02-18T12:09:59;99983.25;;;17.38;39.67
10310;BME280;5200;43.236;27.986;2023-02-18T12:12:31;99989.28;;;17.17;39.59
10310;BME280;5200;43.236;27.986;2023-02-18T12:14:58;99994.75;;;17.01;40.16
10310;BME280;5200;43.236;27.986;2023-02-18T12:17:42;99966.31;;;16.78;40.24
10310;BME280;5200;43.236;27.986;2023-02-18T12:20:25;99955.53;;;16.57;41.15
10310;BME280;5200;43.236;27.986;2023-02-18T12:23:04;99992.06;;;16.78;41.12
10310;BME280;5200;43.236;27.986;2023-02-18T12:25:39;99969.22;;;16.68;41.02
10310;BME280;5200;43.236;27.986;2023-02-18T12:28:21;99980.50;;;16.70;41.26
10310;BME280;5200;43.236;27.986;2023-02-18T12:31:08;99988.47;;;16.70;41.52
10310;BME280;5200;43.236;27.986;2023-02-18T12:33:52;99984.09;;;16.55;41.71
10310;BME280;5200;43.236;27.986;2023-02-18T12:36:30;99992.38;;;16.60;41.60
10310;BME280;5200;43.236;27.986;2023-02-18T12:39:09;99972.66;;;16.54;41.83
10310;BME280;5200;43.236;27.986;2023-02-18T12:41:53;99991.41;;;16.53;42.12
10310;BME280;5200;43.236;27.986;2023-02-18T12:44:33;99987.78;;;16.54;42.17
10310;BME280;5200;43.236;27.986;2023-02-18T12:50:37;99988.84;;;16.44;42.66
10310;BME280;5200;43.236;27.986;2023-02-18T12:53:24;99984.34;;;16.45;42.47
10310;BME280;5200;43.236;27.986;2023-02-18T12:56:07;99965.03;;;16.28;42.53
10310;BME280;5200;43.236;27.986;2023-02-18T12:58:49;99976.66;;;16.27;42.90
10310;BME280;5200;43.236;27.986;2023-02-18T13:01:29;99952.56;;;16.05;42.98
10310;BME280;5200;43.236;27.986;2023-02-18T13:04:24;99967.94;;;16.18;43.12
10310;BME280;5200;43.236;27.986;2023-02-18T13:07:21;99970.81;;;16.09;43.47
10310;BME280;5200;43.236;27.986;2023-02-18T13:10:03;99971.00;;;15.99;43.75
10310;BME280;5200;43.236;27.986;2023-02-18T13:12:47;99947.19;;;15.82;43.96
10310;BME280;5200;43.236;27.986;2023-02-18T13:15:20;99953.50;;;15.81;44.31
10310;BME280;5200;43.236;27.986;2023-02-18T13:17:50;99975.19;;;15.93;44.54
10310;BME280;5200;43.236;27.986;2023-02-18T13:20:22;99954.38;;;15.74;44.55
10310;BME280;5200;43.236;27.986;2023-02-18T13:22:52;99949.41;;;15.71;44.95
10310;BME280;5200;43.236;27.986;2023-02-18T13:25:20;99973.56;;;15.84;44.72
10310;BME280;5200;43.236;27.986;2023-02-18T13:27:53;99979.53;;;15.78;45.11